Time;durP1;ratioP1;P1;durP2;ratioP2;P2;SDS_P1;SDS_P2;PMS_P1;PMS_P2;Temp;Humidity;BMP_temperature;BMP_pressure;BME280_temperature;BME280_humidity;BME280_pressure;Samples;Min_cycle;Max_cycle;Signal;HPM_P1;HPM_P2
2023/06/27 00:00:39;;;;;;;14.15;9.45;;;;;;;22.23;87.81;100064.47;5065075;28;20016;-69
2023/06/27 00:03:05;;;;;;;11.93;9.77;;;;;;;22.16;88.03;100057.34;5068101;28;20093;-69
2023/06/27 00:05:30;;;;;;;13.40;9.88;;;;;;;22.18;88.25;100063.44;5085268;28;20059;-69
2023/06/27 00:07:56;;;;;;;13.55;10.30;;;;;;;22.13;88.55;100063.25;5059388;28;20496;-68
2023/06/27 00:10:21;;;;;;;13.07;10.00;;;;;;;22.12;88.81;100059.66;5071024;28;20032;-67
2023/06/27 00:12:47;;;;;;;12.05;10.63;;;;;;;22.08;88.81;100054.84;5074535;28;20028;-67
2023/06/27 00:15:12;;;;;;;13.68;9.80;;;;;;;22.01;89.17;100048.56;5084962;28;20107;-67
2023/06/27 00:17:40;;;;;;;14.00;10.05;;;;;;;21.91;89.10;100040.84;5083149;28;20020;-66
2023/06/27 00:20:09;;;;;;;12.07;9.95;;;;;;;21.93;88.88;100049.63;5067508;28;20102;-67
2023/06/27 00:22:39;;;;;;;13.45;9.75;;;;;;;21.94;88.51;100066.88;5079651;28;20077;-66
2023/06/27 00:25:06;;;;;;;13.07;10.85;;;;;;;21.91;89.15;100059.09;5088375;28;20501;-66
2023/06/27 00:27:32;;;;;;;12.63;10.05;;;;;;;21.87;88.78;100057.84;5055408;28;20186;-67
2023/06/27 00:29:58;;;;;;;15.27;10.43;;;;;;;21.84;88.57;100055.56;5074821;28;20438;-67
2023/06/27 00:32:23;;;;;;;16.95;11.70;;;;;;;21.79;88.38;100058.06;5083527;28;20020;-67
2023/06/27 00:34:49;;;;;;;19.88;11.80;;;;;;;21.79;87.38;100061.66;5069271;28;20032;-67
2023/06/27 00:37:14;;;;;;;11.93;10.73;;;;;;;21.76;87.20;100059.34;5073176;28;20043;-67
2023/06/27 00:39:41;;;;;;;13.70;11.55;;;;;;;21.62;87.32;100044.00;5082105;28;20027;-66
2023/06/27 00:42:06;;;;;;;14.23;10.93;;;;;;;21.65;87.35;100049.06;5075321;28;20021;-67
2023/06/27 00:44:32;;;;;;;13.18;10.38;;;;;;;21.65;87.60;100056.38;5078229;28;20063;-66
2023/06/27 00:46:58;;;;;;;16.48;10.88;;;;;;;21.52;87.60;100040.03;5058384;28;20032;-67
2023/06/27 00:49:24;;;;;;;15.15;10.68;;;;;;;21.55;87.08;100042.34;5073292;28;20081;-67
2023/06/27 00:51:53;;;;;;;12.63;10.75;;;;;;;21.44;87.02;100030.16;5077776;28;20024;-65
2023/06/27 00:54:19;;;;;;;15.88;11.93;;;;;;;21.49;86.94;100049.50;5071858;28;20032;-66
2023/06/27 00:56:45;;;;;;;15.75;11.95;;;;;;;21.46;85.90;100052.63;5081991;28;20032;-66
2023/06/27 00:59:11;;;;;;;17.85;12.15;;;;;;;21.44;85.68;100049.25;5063068;28;20032;-67
2023/06/27 01:01:37;;;;;;;16.48;12.88;;;;;;;21.35;85.42;100033.34;5077682;28;20081;-66
2023/06/27 01:04:03;;;;;;;16.50;13.35;;;;;;;21.32;84.59;100041.94;5069477;28;20468;-67
2023/06/27 01:06:36;;;;;;;18.75;12.38;;;;;;;21.37;84.60;100047.59;5061796;28;20028;-67
2023/06/27 01:09:08;;;;;;;17.77;13.17;;;;;;;21.26;84.55;100038.16;5076027;28;20055;-66
2023/06/27 01:11:44;;;;;;;15.48;12.73;;;;;;;21.33;84.78;100059.97;5074245;28;20493;-67
2023/06/27 01:14:11;;;;;;;16.38;12.90;;;;;;;21.31;85.02;100056.63;5074225;28;20040;-67
2023/06/27 01:16:37;;;;;;;13.73;11.98;;;;;;;21.32;84.23;100059.16;5073195;28;20035;-67
2023/06/27 01:19:12;;;;;;;14.90;12.68;;;;;;;21.31;83.63;100051.19;5068399;28;20679;-67
2023/06/27 01:21:39;;;;;;;16.05;12.20;;;;;;;21.32;83.29;100055.56;5070499;28;20025;-66
2023/06/27 01:24:08;;;;;;;15.63;11.00;;;;;;;21.31;82.98;100068.38;5044520;28;1146853;-66
2023/06/27 01:26:34;;;;;;;16.23;11.45;;;;;;;21.29;82.39;100059.56;5087982;28;20035;-66
2023/06/27 01:29:00;;;;;;;14.02;10.45;;;;;;;21.24;81.83;100058.50;5061474;28;20518;-67
2023/06/27 01:31:57;;;;;;;14.52;10.38;;;;;;;21.25;81.66;100063.75;5073857;28;20113;-67
2023/06/27 01:34:32;;;;;;;14.27;10.38;;;;;;;21.21;81.71;100056.19;5071129;28;20081;-67
2023/06/27 01:37:04;;;;;;;16.88;10.55;;;;;;;21.18;81.48;100053.91;5079666;28;20085;-68
2023/06/27 01:39:37;;;;;;;12.75;10.32;;;;;;;21.15;81.46;100049.69;5074568;28;20505;-68
2023/06/27 01:42:17;;;;;;;13.68;9.07;;;;;;;21.15;81.42;100060.59;5078583;28;20063;-67
2023/06/27 01:44:46;;;;;;;14.25;9.98;;;;;;;21.06;81.16;100047.38;5078271;28;20484;-67
2023/06/27 01:47:13;;;;;;;15.02;9.27;;;;;;;21.12;80.91;100054.75;5076595;28;20043;-67
2023/06/27 01:49:38;;;;;;;12.98;9.50;;;;;;;21.09;80.69;100058.69;5067335;28;20032;-66
2023/06/27 01:52:05;;;;;;;11.65;9.20;;;;;;;21.04;81.05;100063.09;5071321;28;20070;-67
2023/06/27 01:54:30;;;;;;;13.90;8.60;;;;;;;20.96;81.65;100057.88;5073939;28;20035;-66
2023/06/27 01:56:56;;;;;;;14.73;9.50;;;;;;;20.99;81.96;100062.91;5084624;28;20048;-67
2023/06/27 01:59:21;;;;;;;14.38;9.60;;;;;;;20.95;82.28;100064.34;5078371;28;20028;-67
2023/06/27 02:01:46;;;;;;;10.60;9.27;;;;;;;20.94;81.82;100059.94;5079328;28;20063;-67
2023/06/27 02:04:12;;;;;;;11.48;9.07;;;;;;;20.90;81.76;100064.97;5080555;28;20032;-67
2023/06/27 02:06:37;;;;;;;11.63;8.85;;;;;;;20.87;81.65;100059.06;5073776;28;20032;-67
2023/06/27 02:09:04;;;;;;;13.30;8.80;;;;;;;20.85;81.99;100070.19;5086971;28;20480;-67
2023/06/27 02:11:29;;;;;;;13.25;9.95;;;;;;;20.79;82.27;100059.28;5078323;28;20039;-67
2023/06/27 02:13:55;;;;;;;14.95;9.80;;;;;;;20.74;82.61;100059.91;5081375;28;20471;-67
2023/06/27 02:16:20;;;;;;;14.65;9.27;;;;;;;20.77;82.40;100058.63;5086053;28;20376;-67
2023/06/27 02:18:46;;;;;;;14.15;9.45;;;;;;;20.67;82.78;100050.00;5062897;28;20392;-67
2023/06/27 02:21:11;;;;;;;12.52;9.05;;;;;;;20.71;82.42;100056.72;5054055;28;20429;-66
2023/06/27 02:23:37;;;;;;;11.27;8.93;;;;;;;20.68;82.52;100054.41;5068999;28;20031;-67
2023/06/27 02:26:03;;;;;;;11.90;7.95;;;;;;;20.58;82.34;100043.91;5072082;28;20040;-67
2023/06/27 02:28:29;;;;;;;12.13;8.52;;;;;;;20.64;82.11;100051.28;5076141;28;20420;-67
2023/06/27 02:30:54;;;;;;;11.13;8.40;;;;;;;20.64;82.19;100051.28;5069808;28;20032;-67
2023/06/27 02:33:20;;;;;;;10.93;9.00;;;;;;;20.62;82.53;100049.78;5082239;28;20482;-67
2023/06/27 02:35:45;;;;;;;12.40;8.77;;;;;;;20.44;82.97;100030.47;5065965;28;20029;-66
2023/06/27 02:38:11;;;;;;;12.38;8.57;;;;;;;20.54;83.12;100052.69;5074793;28;20495;-66
2023/06/27 02:40:36;;;;;;;9.57;7.78;;;;;;;20.46;83.26;100048.28;5067109;28;20032;-66
2023/06/27 02:43:02;;;;;;;11.95;8.55;;;;;;;20.48;83.44;100053.50;5067857;28;20476;-67
2023/06/27 02:45:27;;;;;;;12.50;8.55;;;;;;;20.46;83.39;100041.97;5081992;28;20032;-67
2023/06/27 02:47:52;;;;;;;11.73;8.65;;;;;;;20.45;83.66;100048.47;5059526;28;20031;-66
2023/06/27 02:50:18;;;;;;;9.70;8.43;;;;;;;20.40;84.23;100043.63;5081981;28;20028;-67
2023/06/27 02:52:43;;;;;;;13.43;8.55;;;;;;;20.37;83.90;100038.59;5050071;28;20767;-67
2023/06/27 02:55:09;;;;;;;13.60;9.30;;;;;;;20.38;83.79;100034.84;5061277;28;20032;-67
2023/06/27 02:57:34;;;;;;;11.20;8.25;;;;;;;20.22;83.66;100009.84;5073661;28;20039;-66
2023/06/27 03:00:00;;;;;;;11.15;8.18;;;;;;;20.35;83.94;100029.81;5081094;28;20059;-67
2023/06/27 03:02:25;;;;;;;11.20;8.35;;;;;;;20.34;83.85;100027.28;5081568;28;20069;-67
2023/06/27 03:04:51;;;;;;;13.10;8.98;;;;;;;20.33;83.60;100033.75;5077872;28;20560;-68
2023/06/27 03:07:16;;;;;;;9.93;8.52;;;;;;;20.32;83.92;100029.34;5080492;28;20024;-67
2023/06/27 03:09:41;;;;;;;12.57;9.00;;;;;;;20.30;84.24;100024.13;5083062;28;20071;-67
2023/06/27 03:12:07;;;;;;;15.02;7.97;;;;;;;20.23;84.29;100012.34;5069066;28;20510;-67
2023/06/27 03:14:33;;;;;;;13.82;9.00;;;;;;;20.31;84.63;100030.41;5070884;28;20028;-66
2023/06/27 03:16:58;;;;;;;14.40;8.98;;;;;;;20.31;85.09;100025.78;5077594;28;20036;-67
2023/06/27 03:19:24;;;;;;;17.90;8.70;;;;;;;20.30;85.74;100032.28;5069805;28;20504;-67
2023/06/27 03:21:49;;;;;;;11.45;8.88;;;;;;;20.32;86.00;100023.91;5071317;28;20085;-66
2023/06/27 03:24:15;;;;;;;18.02;8.90;;;;;;;20.31;86.43;100031.22;5074110;28;20502;-66
2023/06/27 03:26:40;;;;;;;15.85;9.40;;;;;;;20.29;86.75;100027.88;5079006;28;20066;-67
2023/06/27 03:29:05;;;;;;;14.15;9.13;;;;;;;20.30;87.17;100025.97;5077883;28;20111;-67
2023/06/27 03:31:31;;;;;;;13.80;8.25;;;;;;;20.34;86.97;100030.81;5074801;28;20507;-67
2023/06/27 03:33:57;;;;;;;11.32;8.60;;;;;;;20.29;86.84;100013.41;5075329;28;20126;-66
2023/06/27 03:36:24;;;;;;;10.63;8.65;;;;;;;20.38;87.19;100026.66;5073628;28;20111;-67
2023/06/27 03:38:51;;;;;;;10.75;8.25;;;;;;;20.41;86.09;100017.25;5075478;28;20032;-67
2023/06/27 03:41:17;;;;;;;10.00;8.02;;;;;;;20.46;85.67;100022.91;5055289;28;20023;-67
2023/06/27 03:43:42;;;;;;;16.33;8.50;;;;;;;20.45;86.13;100013.91;5076437;28;20383;-66
2023/06/27 03:46:12;;;;;;;11.68;8.82;;;;;;;20.45;85.84;100013.06;5073014;28;20561;-66
2023/06/27 03:48:37;;;;;;;12.82;8.55;;;;;;;20.46;85.83;100012.00;5073878;28;20032;-66
2023/06/27 03:51:03;;;;;;;13.15;8.05;;;;;;;20.52;85.63;100005.72;5077016;28;20028;-67
2023/06/27 03:53:28;;;;;;;14.65;8.23;;;;;;;20.56;85.40;100009.72;5078099;28;20081;-67
2023/06/27 03:55:54;;;;;;;12.25;7.55;;;;;;;20.61;85.01;100009.94;5069776;28;20044;-67
2023/06/27 03:58:20;;;;;;;14.23;8.23;;;;;;;20.64;84.37;100004.94;5073730;28;20066;-67
2023/06/27 04:00:45;;;;;;;10.35;7.03;;;;;;;20.61;83.74;99999.91;5072791;28;20107;-67
2023/06/27 04:03:10;;;;;;;12.27;7.70;;;;;;;20.72;84.06;100014.78;5070938;28;20016;-67
2023/06/27 04:05:36;;;;;;;10.93;8.05;;;;;;;20.74;84.30;100008.09;5084143;28;20076;-68
2023/06/27 04:08:01;;;;;;;10.30;7.75;;;;;;;20.87;83.68;100012.72;5075989;28;20047;-66
2023/06/27 04:10:27;;;;;;;13.40;7.55;;;;;;;20.91;82.48;100013.97;5064625;28;20058;-66
2023/06/27 04:12:54;;;;;;;12.05;8.40;;;;;;;21.05;81.04;100027.44;5068586;28;20036;-66
2023/06/27 04:15:19;;;;;;;9.93;8.07;;;;;;;21.09;80.41;100027.88;5071060;28;20157;-67
2023/06/27 04:17:45;;;;;;;11.13;7.97;;;;;;;21.22;79.16;100039.59;5072095;28;20036;-66
2023/06/27 04:20:12;;;;;;;13.25;8.20;;;;;;;21.30;78.11;100041.28;5073209;28;20391;-66
2023/06/27 04:22:37;;;;;;;13.68;8.05;;;;;;;21.38;77.87;100049.28;5070906;28;20651;-66
2023/06/27 04:25:03;;;;;;;12.70;7.45;;;;;;;21.41;76.65;100037.94;5061858;28;21562;-66
2023/06/27 04:27:29;;;;;;;9.98;7.40;;;;;;;21.53;76.01;100053.47;5051196;28;20033;-66
2023/06/27 04:29:55;;;;;;;9.05;6.70;;;;;;;21.58;76.24;100052.84;5059127;28;20035;-67
2023/06/27 04:32:20;;;;;;;10.23;7.22;;;;;;;21.64;75.59;100057.44;5060299;28;20035;-65
2023/06/27 04:34:46;;;;;;;12.23;7.22;;;;;;;21.68;75.09;100059.56;5054554;28;20051;-67
2023/06/27 04:37:11;;;;;;;8.73;7.13;;;;;;;21.68;75.05;100056.81;5055050;28;20093;-66
2023/06/27 04:39:36;;;;;;;10.25;7.07;;;;;;;21.78;74.65;100056.41;5047199;28;20764;-67
2023/06/27 04:42:02;;;;;;;10.63;6.60;;;;;;;21.79;74.84;100052.59;5052248;28;20636;-67
2023/06/27 04:44:27;;;;;;;10.07;7.07;;;;;;;21.90;74.41;100062.91;5055317;28;20064;-67
2023/06/27 04:46:54;;;;;;;9.43;7.00;;;;;;;21.95;74.27;100054.88;5064513;28;20025;-66
2023/06/27 04:49:19;;;;;;;9.00;6.82;;;;;;;22.00;74.04;100055.09;5046844;28;20024;-67
2023/06/27 04:51:44;;;;;;;13.15;6.95;;;;;;;22.06;73.68;100054.25;5053960;28;20366;-67
2023/06/27 04:54:10;;;;;;;9.65;7.80;;;;;;;22.15;73.90;100055.66;5058307;28;20033;-67
2023/06/27 04:56:35;;;;;;;9.02;6.85;;;;;;;22.20;73.60;100062.19;5058261;28;20040;-66
2023/06/27 04:59:19;;;;;;;12.60;7.05;;;;;;;22.22;72.37;100053.78;5059069;28;20044;-67
2023/06/27 05:01:45;;;;;;;8.60;7.13;;;;;;;22.37;72.10;100054.31;5058862;28;20522;-67
2023/06/27 05:04:10;;;;;;;9.32;6.40;;;;;;;22.44;72.36;100054.31;5061318;28;20033;-67
2023/06/27 05:06:36;;;;;;;9.98;6.05;;;;;;;22.57;72.38;100041.41;5058579;28;20053;-67
2023/06/27 05:09:03;;;;;;;9.52;6.32;;;;;;;22.59;71.02;100027.53;5055907;28;20109;-68
2023/06/27 05:11:30;;;;;;;8.68;6.32;;;;;;;22.77;70.25;100044.06;5053701;28;20388;-67
2023/06/27 05:13:56;;;;;;;9.50;6.50;;;;;;;22.76;68.63;100026.78;5059035;28;20064;-67
2023/06/27 05:16:22;;;;;;;9.38;6.78;;;;;;;22.96;67.89;100037.63;5057753;28;20654;-68
2023/06/27 05:18:47;;;;;;;8.38;5.75;;;;;;;22.92;67.63;100009.84;5053500;28;20032;-68
2023/06/27 05:21:13;;;;;;;7.25;6.03;;;;;;;23.17;67.22;100026.28;5052695;28;20027;-68
2023/06/27 05:23:38;;;;;;;7.38;5.88;;;;;;;23.26;67.38;100027.72;5059425;28;20460;-68
2023/06/27 05:26:04;;;;;;;7.95;6.25;;;;;;;23.34;67.05;100020.06;5077528;28;20044;-67
2023/06/27 05:28:29;;;;;;;9.88;5.97;;;;;;;;;;5077843;28;20442;-67
2023/06/27 05:30:56;;;;;;;10.38;5.53;;;;;;;23.53;65.97;100016.31;5078961;28;20032;-67
2023/06/27 05:33:21;;;;;;;8.05;5.85;;;;;;;23.58;65.32;100008.28;5077661;28;20444;-66
2023/06/27 05:35:47;;;;;;;6.70;5.57;;;;;;;23.72;65.30;100020.75;5084616;28;20028;-68
2023/06/27 05:38:12;;;;;;;6.20;5.45;;;;;;;23.84;64.72;100026.31;5087638;28;20043;-67
2023/06/27 05:40:38;;;;;;;6.78;5.95;;;;;;;23.89;63.75;100021.84;5065939;28;20567;-67
2023/06/27 05:43:03;;;;;;;5.80;4.72;;;;;;;24.02;63.33;100015.41;5077814;28;20024;-68
2023/06/27 05:45:29;;;;;;;8.30;5.57;;;;;;;24.19;62.26;100017.28;5085848;28;20027;-66
2023/06/27 05:47:54;;;;;;;7.50;5.80;;;;;;;24.24;61.62;100011.13;5077791;28;20035;-67
2023/06/27 05:50:20;;;;;;;8.50;5.57;;;;;;;24.35;61.31;100007.63;5086219;28;20102;-66
2023/06/27 05:52:45;;;;;;;6.10;5.13;;;;;;;24.49;61.04;100020.06;5072076;28;20021;-66
2023/06/27 05:55:10;;;;;;;10.60;5.75;;;;;;;24.51;61.13;100011.63;5074248;28;20025;-66
2023/06/27 05:57:36;;;;;;;8.85;5.68;;;;;;;24.65;60.85;100029.59;5080344;28;20032;-66
2023/06/27 06:00:03;;;;;;;8.50;5.38;;;;;;;24.71;60.90;100025.91;5067085;28;20089;-66
2023/06/27 06:02:28;;;;;;;8.77;5.78;;;;;;;24.54;61.24;100000.19;5077809;28;20139;-67
2023/06/27 06:04:54;;;;;;;6.28;5.30;;;;;;;24.70;61.42;100021.50;5085128;28;20042;-67
2023/06/27 06:07:20;;;;;;;6.07;5.47;;;;;;;24.80;61.02;100043.72;5065276;28;20024;-67
2023/06/27 06:09:45;;;;;;;7.30;5.55;;;;;;;24.83;61.24;100052.34;5076444;28;20039;-67
2023/06/27 06:12:11;;;;;;;9.00;5.45;;;;;;;24.83;60.77;100056.97;5078403;28;20024;-67
2023/06/27 06:14:36;;;;;;;9.77;6.00;;;;;;;24.82;60.67;100053.41;5076264;28;20118;-68
2023/06/27 06:17:01;;;;;;;5.95;5.30;;;;;;;24.83;60.75;100056.97;5074199;28;20021;-67
2023/06/27 06:19:27;;;;;;;6.78;5.10;;;;;;;24.79;61.30;100064.00;5078166;28;20034;-68
2023/06/27 06:21:52;;;;;;;8.95;5.30;;;;;;;24.75;61.87;100052.66;5066579;28;20022;-65
2023/06/27 06:24:18;;;;;;;5.85;5.10;;;;;;;24.63;62.17;100029.78;5062262;28;20126;-69
2023/06/27 06:26:43;;;;;;;10.20;5.38;;;;;;;24.68;62.34;100046.44;5069898;28;20074;-66
2023/06/27 06:29:12;;;;;;;11.35;5.47;;;;;;;24.66;62.82;100045.00;5081935;28;20035;-67
2023/06/27 06:31:39;;;;;;;10.38;6.10;;;;;;;24.61;62.95;100031.09;5085939;28;20491;-66
2023/06/27 06:34:04;;;;;;;6.97;5.32;;;;;;;24.58;63.70;100035.16;5073658;28;20035;-65
2023/06/27 06:36:30;;;;;;;8.95;5.47;;;;;;;24.50;66.04;100020.91;5056306;28;20404;-66
2023/06/27 06:38:55;;;;;;;6.95;5.60;;;;;;;24.52;68.31;100032.47;5066769;28;20028;-67
2023/06/27 06:41:20;;;;;;;16.42;6.72;;;;;;;24.46;70.15;100047.97;5066142;28;20543;-67
2023/06/27 06:43:46;;;;;;;15.63;6.43;;;;;;;24.38;70.52;100040.88;5048076;28;20029;-68
2023/06/27 06:46:11;;;;;;;8.20;5.72;;;;;;;24.34;70.23;100025.13;5068911;28;20023;-67
2023/06/27 06:48:37;;;;;;;9.50;5.93;;;;;;;24.37;70.44;100036.47;5065713;28;20028;-68
2023/06/27 06:51:02;;;;;;;7.72;5.13;;;;;;;24.33;71.64;100046.22;5071312;28;20032;-68
2023/06/27 06:53:28;;;;;;;8.60;5.82;;;;;;;24.27;71.59;100047.16;5074006;28;20460;-67
2023/06/27 06:55:53;;;;;;;8.73;6.63;;;;;;;24.28;71.14;100053.47;5055504;28;20495;-68
2023/06/27 06:58:19;;;;;;;9.30;6.05;;;;;;;24.23;71.82;100037.72;5073000;28;20111;-67
2023/06/27 07:00:44;;;;;;;8.98;5.75;;;;;;;24.21;71.94;100055.44;5069535;28;20036;-67
2023/06/27 07:03:10;;;;;;;7.97;6.07;;;;;;;24.08;71.95;100040.00;5073740;28;20020;-66
2023/06/27 07:05:36;;;;;;;8.23;5.85;;;;;;;24.01;72.14;100041.97;5072531;28;20028;-67
2023/06/27 07:08:05;;;;;;;8.00;5.93;;;;;;;24.04;71.65;100049.75;5077115;28;20123;-68
2023/06/27 07:10:32;;;;;;;8.10;6.28;;;;;;;24.09;71.61;100060.03;5067829;28;20676;-68
2023/06/27 07:12:59;;;;;;;10.52;6.50;;;;;;;24.05;71.78;100073.31;5056947;28;20802;-67
2023/06/27 07:15:25;;;;;;;7.97;6.68;;;;;;;23.97;71.56;100059.09;5080115;28;20032;-68
2023/06/27 07:17:51;;;;;;;8.18;6.40;;;;;;;24.00;72.27;100059.50;5077384;28;20024;-67
2023/06/27 07:20:17;;;;;;;8.20;6.82;;;;;;;23.99;72.49;100060.53;5076001;28;20050;-67
2023/06/27 07:22:42;;;;;;;9.10;7.10;;;;;;;23.93;72.20;100058.66;5077818;28;20020;-68
2023/06/27 07:25:08;;;;;;;10.05;7.55;;;;;;;23.99;72.21;100067.94;5085029;28;20044;-67
2023/06/27 07:27:34;;;;;;;8.60;7.25;;;;;;;23.87;72.40;100056.84;5075249;28;20127;-68
2023/06/27 07:29:59;;;;;;;9.32;7.55;;;;;;;23.91;72.41;100074.50;5075307;28;20475;-67
2023/06/27 07:32:24;;;;;;;8.20;7.22;;;;;;;23.90;72.14;100081.03;5070782;28;20036;-67
2023/06/27 07:34:50;;;;;;;10.60;8.15;;;;;;;23.90;73.14;100075.56;5075785;28;20477;-67
2023/06/27 07:37:15;;;;;;;10.77;8.18;;;;;;;23.84;73.24;100070.16;5076362;28;20028;-67
2023/06/27 07:39:41;;;;;;;15.02;8.77;;;;;;;23.91;73.59;100084.63;5065374;28;20027;-68
2023/06/27 07:42:07;;;;;;;9.60;7.68;;;;;;;23.87;73.81;100065.06;5061076;28;20052;-68
2023/06/27 07:44:34;;;;;;;11.38;8.38;;;;;;;23.95;74.16;100081.25;5085068;28;20070;-67
2023/06/27 07:46:59;;;;;;;9.95;7.55;;;;;;;23.94;74.46;100082.31;5080067;28;20644;-67
2023/06/27 07:49:25;;;;;;;10.75;7.75;;;;;;;23.99;74.59;100074.22;5080366;28;20066;-67
2023/06/27 07:51:51;;;;;;;9.68;8.13;;;;;;;24.01;74.10;100069.38;5065111;28;20051;-67
2023/06/27 07:54:19;;;;;;;9.43;7.45;;;;;;;24.01;73.95;100069.38;5076122;28;20533;-68
2023/06/27 07:56:44;;;;;;;8.35;7.20;;;;;;;24.10;73.53;100081.72;5046346;28;20109;-67
2023/06/27 07:59:12;;;;;;;12.00;7.90;;;;;;;24.14;73.49;100090.31;5061031;28;20914;-67
2023/06/27 08:01:40;;;;;;;10.40;7.45;;;;;;;24.14;73.40;100087.56;5074437;28;20035;-69
2023/06/27 08:04:05;;;;;;;11.43;8.10;;;;;;;24.17;73.30;100090.69;5068655;28;20166;-68
2023/06/27 08:06:31;;;;;;;11.25;8.57;;;;;;;24.20;73.11;100094.88;5079597;28;20032;-68
2023/06/27 08:08:57;;;;;;;10.98;9.52;;;;;;;24.21;73.39;100099.28;5053449;28;20020;-68
2023/06/27 08:11:22;;;;;;;18.67;13.23;;;;;;;24.21;73.42;100104.78;5074582;28;20480;-67
2023/06/27 08:13:48;;;;;;;18.25;11.00;;;;;;;24.05;73.91;100098.00;5072373;28;20078;-68
2023/06/27 08:16:13;;;;;;;20.45;14.43;;;;;;;24.14;74.47;100114.97;5050473;28;20089;-68
2023/06/27 08:18:39;;;;;;;13.73;9.90;;;;;;;24.20;74.79;100119.56;5070660;28;20025;-67
2023/06/27 08:21:04;;;;;;;11.85;8.55;;;;;;;24.26;75.41;100119.50;5047021;28;20036;-67
2023/06/27 08:23:30;;;;;;;9.20;8.30;;;;;;;24.24;74.97;100104.31;5078472;28;20036;-68
2023/06/27 08:25:59;;;;;;;9.52;8.13;;;;;;;24.29;75.01;100108.06;5054613;28;20052;-69
2023/06/27 08:28:25;;;;;;;12.35;8.02;;;;;;;24.29;74.65;100091.63;5064651;28;20488;-67
2023/06/27 08:30:50;;;;;;;10.25;8.07;;;;;;;24.41;74.90;100114.44;5077800;28;20081;-67
2023/06/27 08:33:16;;;;;;;10.90;8.23;;;;;;;24.44;75.20;100104.94;5079291;28;20077;-66
2023/06/27 08:35:43;;;;;;;14.73;8.82;;;;;;;24.50;74.97;100105.94;5084557;28;20061;-67
2023/06/27 08:38:10;;;;;;;9.60;7.75;;;;;;;24.54;74.45;100098.91;5083205;28;20099;-67
2023/06/27 08:40:36;;;;;;;10.40;9.30;;;;;;;24.56;74.72;100097.59;5077411;28;20161;-68
2023/06/27 08:43:04;;;;;;;10.93;8.60;;;;;;;24.61;75.30;100096.91;5073726;28;20107;-67
2023/06/27 08:45:29;;;;;;;11.27;8.48;;;;;;;24.66;75.59;100092.44;5073759;28;20495;-67
2023/06/27 08:47:56;;;;;;;11.05;8.60;;;;;;;24.67;75.22;100080.44;5056064;28;20032;-67
2023/06/27 08:50:22;;;;;;;10.45;8.43;;;;;;;24.78;75.62;100095.25;5081448;28;20055;-67
2023/06/27 08:52:54;;;;;;;12.05;8.45;;;;;;;24.81;75.87;100076.41;5072910;28;20076;-67
2023/06/27 08:55:52;;;;;;;8.55;7.65;;;;;;;25.00;75.83;100082.69;5055765;28;20126;-66
2023/06/27 08:58:24;;;;;;;11.25;7.97;;;;;;;25.07;75.36;100084.28;5047506;28;20291;-67
2023/06/27 09:00:51;;;;;;;10.73;9.23;;;;;;;25.19;74.63;100081.56;5079526;28;21462;-67
2023/06/27 09:03:17;;;;;;;9.80;8.48;;;;;;;25.27;74.55;100089.44;5076841;28;20099;-69
2023/06/27 09:05:44;;;;;;;11.00;9.13;;;;;;;25.37;74.40;100096.06;5075569;28;20112;-67
2023/06/27 09:08:09;;;;;;;10.00;9.00;;;;;;;25.44;74.34;100096.00;5079155;28;20036;-68
2023/06/27 09:10:35;;;;;;;8.60;7.72;;;;;;;25.45;74.04;100089.41;5074183;28;20441;-67
2023/06/27 09:13:01;;;;;;;9.95;8.95;;;;;;;25.52;72.21;100088.22;5075242;28;20104;-68
2023/06/27 09:15:26;;;;;;;10.73;9.17;;;;;;;25.62;70.60;100095.88;4706137;28;10000458;-69
2023/06/27 09:17:52;;;;;;;10.80;9.35;;;;;;;25.66;69.71;100088.84;5075144;28;20503;-68
2023/06/27 09:20:19;;;;;;;13.48;9.75;;;;;;;25.69;69.11;100093.84;5078938;28;20039;-68
2023/06/27 09:22:45;;;;;;;11.48;9.02;;;;;;;25.64;69.25;100077.25;5054433;28;20024;-67
2023/06/27 09:25:15;;;;;;;11.68;9.02;;;;;;;25.81;68.81;100103.78;5068824;28;20389;-68
2023/06/27 09:27:41;;;;;;;9.73;8.73;;;;;;;25.87;67.89;100080.84;5073995;28;20151;-67
2023/06/27 09:30:08;;;;;;;13.00;9.30;;;;;;;25.92;68.01;100091.94;5069986;28;20036;-67
2023/06/27 09:32:50;;;;;;;11.48;8.73;;;;;;;25.98;67.25;100095.69;5077479;28;20078;-67
2023/06/27 09:35:16;;;;;;;12.07;9.15;;;;;;;25.96;66.99;100081.31;5065073;28;20055;-67
2023/06/27 09:37:41;;;;;;;13.35;9.50;;;;;;;26.06;67.34;100089.84;5075965;28;20056;-67
2023/06/27 09:40:21;;;;;;;10.40;8.73;;;;;;;26.11;67.62;100095.44;5075487;28;20056;-67
2023/06/27 09:42:57;;;;;;;11.60;8.98;;;;;;;25.99;66.79;100075.38;5064944;28;20017;-67
2023/06/27 09:45:24;;;;;;;12.65;9.35;;;;;;;26.11;66.58;100088.03;5052746;28;20078;-66
2023/06/27 09:47:52;;;;;;;12.02;9.48;;;;;;;26.11;65.65;100088.03;5070633;28;20077;-66
2023/06/27 09:50:26;;;;;;;12.93;9.20;;;;;;;26.14;65.02;100089.44;5080255;28;20035;-66
2023/06/27 09:53:07;;;;;;;10.60;8.20;;;;;;;25.97;65.65;100066.53;5076106;28;20035;-68
2023/06/27 09:55:32;;;;;;;9.93;8.65;;;;;;;26.12;66.26;100092.44;5051108;28;20071;-67
2023/06/27 09:57:58;;;;;;;10.55;9.07;;;;;;;26.09;66.40;100079.16;5044198;28;20036;-66
2023/06/27 10:00:28;;;;;;;10.23;9.13;;;;;;;26.12;65.98;100089.69;5069006;28;20024;-66
2023/06/27 10:02:54;;;;;;;11.85;9.48;;;;;;;26.16;66.40;100090.91;5050771;28;20496;-65
2023/06/27 10:05:21;;;;;;;20.77;16.15;;;;;;;26.14;66.78;100086.69;5069131;28;20028;-67
2023/06/27 10:07:52;;;;;;;10.48;8.80;;;;;;;26.17;66.33;100091.72;5062311;28;20020;-66
2023/06/27 10:10:20;;;;;;;16.63;9.30;;;;;;;26.11;66.26;100092.69;5062720;28;20108;-66
2023/06/27 10:12:46;;;;;;;10.93;9.23;;;;;;;26.03;66.72;100101.31;5042454;28;20036;-66
2023/06/27 10:15:12;;;;;;;9.10;8.20;;;;;;;25.98;67.00;100085.53;5075403;28;20487;-66
2023/06/27 10:17:38;;;;;;;12.32;10.00;;;;;;;26.05;67.30;100104.66;5071711;28;20039;-66
2023/06/27 10:20:11;;;;;;;11.07;9.02;;;;;;;25.99;66.85;100103.69;5076418;28;20028;-68
2023/06/27 10:22:39;;;;;;;10.35;9.00;;;;;;;25.97;67.02;100108.59;5072049;28;20425;-67
2023/06/27 10:25:05;;;;;;;10.38;7.85;;;;;;;25.91;67.08;100117.78;5070411;28;20063;-68
2023/06/27 10:27:35;;;;;;;9.45;8.13;;;;;;;25.91;66.47;100114.19;5075316;28;20032;-68
2023/06/27 10:30:28;;;;;;;11.35;8.52;;;;;;;25.89;65.25;100119.91;5065270;28;20036;-66
2023/06/27 10:33:08;;;;;;;9.90;8.00;;;;;;;25.87;65.25;100115.75;5055825;28;20288;-66
2023/06/27 10:35:39;;;;;;;11.65;8.10;;;;;;;25.84;66.36;100118.97;5069459;28;20458;-67
2023/06/27 10:38:17;;;;;;;9.57;8.25;;;;;;;25.73;66.96;100103.31;5072647;28;20028;-68
2023/06/27 10:40:58;;;;;;;9.20;8.30;;;;;;;25.78;67.53;100114.41;5076962;28;20016;-67
2023/06/27 10:43:45;;;;;;;12.00;8.40;;;;;;;25.74;68.35;100115.97;5073857;28;20032;-67
2023/06/27 10:46:20;;;;;;;8.80;7.72;;;;;;;25.83;67.11;100115.38;5075443;28;20032;-67
2023/06/27 10:48:50;;;;;;;11.15;8.35;;;;;;;25.81;67.43;100120.28;5076405;28;20052;-67
2023/06/27 10:51:23;;;;;;;9.00;8.10;;;;;;;25.75;68.05;100118.47;5074289;28;20042;-67
2023/06/27 10:54:12;;;;;;;10.20;8.43;;;;;;;25.76;67.59;100117.41;5079110;28;21933;-67
2023/06/27 10:56:47;;;;;;;11.00;7.50;;;;;;;25.72;68.19;100126.34;5064214;28;20036;-66
2023/06/27 10:59:18;;;;;;;10.13;8.60;;;;;;;25.74;68.77;100126.97;5077889;28;20047;-67
2023/06/27 11:01:50;;;;;;;8.75;7.85;;;;;;;25.71;69.53;100127.44;5071479;28;20563;-67
2023/06/27 11:04:21;;;;;;;8.73;7.93;;;;;;;25.70;69.54;100118.34;5071245;28;20039;-66
2023/06/27 11:06:47;;;;;;;10.98;7.85;;;;;;;25.73;68.79;100119.78;5073348;28;20032;-66
2023/06/27 11:09:15;;;;;;;9.50;7.80;;;;;;;25.73;68.73;100117.06;5073844;28;20028;-67
2023/06/27 11:11:40;;;;;;;9.98;7.57;;;;;;;25.71;68.25;100110.94;5070407;28;20368;-67
2023/06/27 11:14:08;;;;;;;8.13;7.43;;;;;;;25.76;68.35;100124.81;5081912;28;20039;-66
2023/06/27 11:16:34;;;;;;;12.88;8.35;;;;;;;25.77;68.42;100112.75;5053967;28;20433;-68
2023/06/27 11:19:03;;;;;;;10.45;7.32;;;;;;;25.78;68.51;100125.41;5054474;28;20354;-66